Time;durP1;ratioP1;P1;durP2;ratioP2;P2;SDS_P1;SDS_P2;PMS_P1;PMS_P2;Temp;Humidity;BMP_temperature;BMP_pressure;BME280_temperature;BME280_humidity;BME280_pressure;Samples;Min_cycle;Max_cycle;Signal;HPM_P1;HPM_P2
2023/08/14 00:00:11;;;;;;;4.70;2.38;;;;;;;16.68;100.00;100923.56;5034721;28;20057;-85
2023/08/14 00:02:37;;;;;;;5.88;2.22;;;;;;;16.66;100.00;100920.09;5018432;28;20053;-84
2023/08/14 00:05:04;;;;;;;4.18;2.90;;;;;;;16.63;100.00;100917.56;5033280;28;20080;-85
2023/08/14 00:07:31;;;;;;;6.85;2.75;;;;;;;16.60;100.00;100920.28;5031347;28;20123;-86
2023/08/14 00:09:58;;;;;;;3.92;2.45;;;;;;;16.58;100.00;100920.31;5039292;28;20041;-86
2023/08/14 00:12:24;;;;;;;6.38;2.10;;;;;;;16.56;100.00;100916.88;5036261;28;20042;-86
2023/08/14 00:14:51;;;;;;;9.52;2.60;;;;;;;16.56;100.00;100913.34;5029977;28;20136;-85
2023/08/14 00:17:18;;;;;;;4.25;2.42;;;;;;;16.53;100.00;100912.53;5033966;28;20053;-87
2023/08/14 00:19:48;;;;;;;4.75;2.30;;;;;;;16.53;100.00;100911.66;5048993;28;20560;-88
2023/08/14 00:22:14;;;;;;;5.03;2.45;;;;;;;16.54;100.00;100911.63;5015607;28;20133;-88
2023/08/14 00:24:41;;;;;;;3.83;2.80;;;;;;;16.62;100.00;100927.28;5033060;28;20915;-87
2023/08/14 00:27:08;;;;;;;6.65;2.78;;;;;;;16.67;100.00;100924.47;5016186;28;20045;-86
2023/08/14 00:29:35;;;;;;;4.90;2.40;;;;;;;16.71;100.00;100926.09;5034382;28;20053;-87
2023/08/14 00:32:02;;;;;;;4.13;2.50;;;;;;;16.75;100.00;100922.47;5042492;28;20105;-87
2023/08/14 00:34:28;;;;;;;3.08;2.58;;;;;;;16.73;100.00;100928.72;5040585;28;20065;-86
2023/08/14 00:36:55;;;;;;;6.40;2.50;;;;;;;16.69;100.00;100927.94;5019412;28;20116;-85
2023/08/14 00:39:21;;;;;;;6.43;3.05;;;;;;;16.63;100.00;100923.69;5049334;28;20050;-88
2023/08/14 00:41:51;;;;;;;8.38;2.65;;;;;;;16.59;100.00;100931.78;5014926;28;20636;-88
2023/08/14 00:44:23;;;;;;;2.80;1.80;;;;;;;16.52;100.00;100926.66;5030481;28;20041;-88
2023/08/14 00:46:49;;;;;;;5.38;2.78;;;;;;;16.47;100.00;100927.72;5017079;28;20041;-87
2023/08/14 00:49:16;;;;;;;4.20;2.50;;;;;;;16.44;100.00;100920.75;5047640;28;20037;-87
2023/08/14 00:51:43;;;;;;;5.50;2.50;;;;;;;16.43;100.00;100920.78;5015366;28;20124;-86
2023/08/14 00:54:11;;;;;;;2.90;2.33;;;;;;;16.38;100.00;100926.19;5037276;28;20091;-86
2023/08/14 00:56:37;;;;;;;4.38;2.40;;;;;;;16.33;100.00;100923.66;5028925;28;20052;-86
2023/08/14 00:59:04;;;;;;;4.93;2.47;;;;;;;16.28;100.00;100922.09;5030772;28;20068;-87
2023/08/14 01:01:31;;;;;;;13.80;2.95;;;;;;;16.21;100.00;100919.59;5027294;28;20042;-85
2023/08/14 01:03:57;;;;;;;3.92;2.60;;;;;;;16.18;100.00;100921.50;5032619;28;20061;-84
2023/08/14 01:06:24;;;;;;;5.80;2.72;;;;;;;16.12;100.00;100914.59;5012725;28;20123;-86
2023/08/14 01:08:51;;;;;;;7.60;2.35;;;;;;;16.10;100.00;100919.06;5011988;28;20042;-85
2023/08/14 01:11:29;;;;;;;5.50;3.25;;;;;;;16.12;100.00;100913.72;5025821;28;20039;-86
2023/08/14 01:14:25;;;;;;;3.83;2.50;;;;;;;16.12;100.00;100917.22;5038100;28;20045;-87
2023/08/14 01:17:01;;;;;;;6.03;2.95;;;;;;;16.10;100.00;100921.72;5024762;28;20045;-86
2023/08/14 01:19:34;;;;;;;3.53;2.78;;;;;;;16.07;100.00;100920.91;5044803;28;20041;-85
2023/08/14 01:22:06;;;;;;;5.10;2.90;;;;;;;16.06;100.00;100917.44;5043578;28;20063;-84
2023/08/14 01:25:05;;;;;;;10.35;3.40;;;;;;;16.04;100.00;100916.59;5014764;28;20136;-87
2023/08/14 01:27:31;;;;;;;6.15;3.30;;;;;;;16.00;100.00;100920.22;5009308;28;20046;-88
2023/08/14 01:30:00;;;;;;;4.60;2.67;;;;;;;15.98;100.00;100922.91;5007647;28;20477;-89
2023/08/14 01:32:28;;;;;;;6.82;2.53;;;;;;;16.00;100.00;100918.44;5030036;28;20099;-85
2023/08/14 01:34:56;;;;;;;5.65;2.78;;;;;;;15.97;100.00;100918.53;5032901;28;20053;-85
2023/08/14 01:37:47;;;;;;;6.72;2.55;;;;;;;15.95;100.00;100915.06;5008625;28;20137;-86
2023/08/14 01:40:54;;;;;;;6.80;2.92;;;;;;;15.88;100.00;100911.72;5007654;28;20781;-85
2023/08/14 01:43:31;;;;;;;2.88;2.20;;;;;;;15.83;100.00;100913.63;5020726;28;20053;-86
2023/08/14 01:45:58;;;;;;;2.35;2.17;;;;;;;15.81;100.00;100910.16;5026606;28;20037;-85
2023/08/14 01:48:32;;;;;;;5.38;2.78;;;;;;;15.80;100.00;100910.16;5025601;28;20042;-87
2023/08/14 01:51:00;;;;;;;5.30;2.97;;;;;;;15.82;100.00;100911.03;5012364;28;20124;-86
2023/08/14 01:53:28;;;;;;;5.05;2.45;;;;;;;15.84;100.00;100910.06;5045645;28;20041;-85
2023/08/14 01:55:53;;;;;;;5.40;2.60;;;;;;;15.88;100.00;100914.34;5029562;28;20055;-86
2023/08/14 01:58:21;;;;;;;3.95;2.72;;;;;;;15.95;100.00;100906.28;5028331;28;20041;-85
2023/08/14 02:00:49;;;;;;;3.83;2.33;;;;;;;15.95;100.00;100898.34;5027182;28;20519;-85
2023/08/14 02:03:15;;;;;;;4.45;2.67;;;;;;;15.93;100.00;100895.75;5023513;28;20111;-86
2023/08/14 02:05:42;;;;;;;5.45;2.83;;;;;;;15.87;100.00;100882.72;5026448;28;20088;-86
2023/08/14 02:08:08;;;;;;;8.73;2.95;;;;;;;15.82;100.00;100876.72;5012509;28;20095;-84
2023/08/14 02:10:35;;;;;;;4.93;2.53;;;;;;;15.78;100.00;100883.81;5043889;28;20064;-88
2023/08/14 02:13:02;;;;;;;6.40;2.60;;;;;;;15.76;100.00;100887.38;5027867;28;20049;-88
2023/08/14 02:15:28;;;;;;;6.88;3.33;;;;;;;15.73;100.00;100882.19;5010535;28;20041;-85
2023/08/14 02:17:55;;;;;;;4.00;2.40;;;;;;;15.71;100.00;100880.47;5028880;28;20037;-85
2023/08/14 02:20:21;;;;;;;2.92;2.40;;;;;;;15.71;100.00;100882.25;5028229;28;20512;-86
2023/08/14 02:22:48;;;;;;;10.00;3.55;;;;;;;15.70;100.00;100884.00;5027371;28;20054;-85
2023/08/14 02:25:15;;;;;;;3.65;2.65;;;;;;;15.73;100.00;100882.19;5026729;28;20073;-85
2023/08/14 02:27:41;;;;;;;6.38;2.92;;;;;;;15.73;100.00;100872.50;5057033;28;20037;-87
2023/08/14 02:30:08;;;;;;;4.28;2.45;;;;;;;15.69;100.00;100874.34;5044110;28;20057;-86
2023/08/14 02:32:35;;;;;;;4.93;3.70;;;;;;;15.68;100.00;100871.75;5036145;28;20534;-84
2023/08/14 02:35:02;;;;;;;5.35;3.05;;;;;;;15.69;100.00;100876.97;5019523;28;20056;-87
2023/08/14 02:37:32;;;;;;;6.35;3.38;;;;;;;15.74;100.00;100879.50;5019831;28;20052;-87
2023/08/14 02:39:59;;;;;;;4.10;3.00;;;;;;;15.77;100.00;100876.78;5030204;28;20064;-88
2023/08/14 02:42:27;;;;;;;5.47;3.50;;;;;;;15.84;100.00;100880.19;5024010;28;20050;-86
2023/08/14 02:44:56;;;;;;;4.88;3.20;;;;;;;15.93;100.00;100872.00;5027641;28;20052;-86
2023/08/14 02:47:23;;;;;;;3.75;3.28;;;;;;;16.02;100.00;100877.03;5035113;28;20038;-87
2023/08/14 02:49:50;;;;;;;7.80;2.42;;;;;;;16.09;100.00;100871.53;5042267;28;20041;-86
2023/08/14 02:52:16;;;;;;;5.53;3.30;;;;;;;16.11;100.00;100877.66;5026336;28;20033;-87
2023/08/14 02:54:43;;;;;;;4.28;3.22;;;;;;;16.11;100.00;100869.75;5034383;28;20050;-87
2023/08/14 02:57:10;;;;;;;3.28;2.97;;;;;;;16.10;100.00;100874.16;5032686;28;20043;-86
2023/08/14 02:59:36;;;;;;;6.30;3.33;;;;;;;16.12;100.00;100874.97;5028119;28;20080;-87
2023/08/14 03:02:03;;;;;;;9.48;2.92;;;;;;;16.15;100.00;100869.63;5025530;28;20053;-88
2023/08/14 03:04:30;;;;;;;5.43;3.33;;;;;;;16.18;100.00;100877.44;5025267;28;20049;-86
2023/08/14 03:06:57;;;;;;;6.28;3.58;;;;;;;16.21;100.00;100872.06;5023573;28;20051;-87
2023/08/14 03:09:24;;;;;;;9.27;2.70;;;;;;;16.25;100.00;100862.28;5028976;28;20049;-86
2023/08/14 03:11:50;;;;;;;3.13;2.35;;;;;;;16.26;100.00;100865.81;5011410;28;20422;-87
2023/08/14 03:14:17;;;;;;;3.88;2.78;;;;;;;16.30;100.00;100864.81;5028247;28;20095;-88
2023/08/14 03:16:44;;;;;;;7.95;3.72;;;;;;;16.32;100.00;100862.97;5026437;28;20045;-86
2023/08/14 03:19:10;;;;;;;3.67;2.40;;;;;;;16.34;100.00;100863.78;5026944;28;20045;-85
2023/08/14 03:21:38;;;;;;;4.63;2.75;;;;;;;16.35;100.00;100860.25;5027182;28;20057;-86
2023/08/14 03:24:05;;;;;;;3.13;2.50;;;;;;;16.37;100.00;100871.63;5011524;28;20060;-84
2023/08/14 03:26:32;;;;;;;3.10;2.80;;;;;;;16.35;100.00;100868.19;5024950;28;20049;-88
2023/08/14 03:28:58;;;;;;;4.60;2.80;;;;;;;16.35;100.00;100862.91;5028349;28;20762;-87
2023/08/14 03:31:31;;;;;;;5.13;2.55;;;;;;;16.34;100.00;100866.44;5025074;28;20937;-86
2023/08/14 03:34:00;;;;;;;3.08;2.15;;;;;;;16.36;100.00;100859.31;5023715;28;20048;-86
2023/08/14 03:36:27;;;;;;;8.40;2.55;;;;;;;16.38;100.00;100862.78;5025651;28;20493;-86
2023/08/14 03:38:54;;;;;;;3.65;2.25;;;;;;;16.40;100.00;100854.81;5038824;28;20563;-85
2023/08/14 03:41:21;;;;;;;8.80;2.58;;;;;;;16.41;100.00;100852.13;5027204;28;20049;-85
2023/08/14 03:43:48;;;;;;;4.00;2.10;;;;;;;16.38;100.00;100845.16;5027310;28;20054;-86
2023/08/14 03:46:15;;;;;;;4.30;3.05;;;;;;;16.34;100.00;100848.81;5009213;28;20806;-85
2023/08/14 03:48:43;;;;;;;5.28;2.80;;;;;;;16.32;100.00;100858.56;5009009;28;20113;-86
2023/08/14 03:51:10;;;;;;;6.38;2.72;;;;;;;16.33;100.00;100854.13;5027603;28;20469;-85
2023/08/14 03:53:37;;;;;;;3.75;2.53;;;;;;;16.28;100.00;100849.00;5043084;28;20049;-86
2023/08/14 03:56:04;;;;;;;10.57;3.53;;;;;;;16.19;100.00;100850.13;5019764;28;20037;-85
2023/08/14 03:58:30;;;;;;;6.15;2.72;;;;;;;16.13;100.00;100847.66;5006200;28;20038;-84
2023/08/14 04:00:57;;;;;;;3.83;2.35;;;;;;;16.10;100.00;100852.16;5006676;28;20099;-85
2023/08/14 04:03:24;;;;;;;5.10;2.58;;;;;;;16.13;100.00;100855.59;5009157;28;20077;-86
2023/08/14 04:05:58;;;;;;;3.15;2.20;;;;;;;16.23;100.00;100858.84;5009775;28;20052;-86
2023/08/14 04:08:28;;;;;;;2.13;1.90;;;;;;;16.33;100.00;100859.41;5009968;28;20045;-85
2023/08/14 04:10:57;;;;;;;5.43;2.60;;;;;;;16.44;100.00;100853.81;5025327;28;20085;-86
2023/08/14 04:13:27;;;;;;;9.40;2.42;;;;;;;16.43;100.00;100852.94;5022350;28;20108;-85
2023/08/14 04:15:59;;;;;;;4.53;2.50;;;;;;;16.36;100.00;100860.19;5026103;28;20068;-85
2023/08/14 04:18:29;;;;;;;5.57;2.30;;;;;;;16.31;100.00;100850.66;5026206;28;20046;-85
2023/08/14 04:20:57;;;;;;;4.35;2.78;;;;;;;16.31;100.00;100854.19;5005155;28;20050;-84
2023/08/14 04:23:26;;;;;;;4.32;3.10;;;;;;;16.36;100.00;100848.75;5022399;28;20154;-87
2023/08/14 04:25:55;;;;;;;5.05;2.72;;;;;;;16.43;100.00;100855.59;5043845;28;20041;-88
2023/08/14 04:28:22;;;;;;;4.13;2.40;;;;;;;16.45;100.00;100844.97;5025751;28;20125;-85
2023/08/14 04:30:50;;;;;;;6.25;3.13;;;;;;;16.40;100.00;100844.25;5028956;28;20053;-87
2023/08/14 04:33:18;;;;;;;7.20;3.38;;;;;;;16.33;100.00;100836.50;5033599;28;20056;-86
2023/08/14 04:35:47;;;;;;;6.97;2.45;;;;;;;16.23;100.00;100835.06;5014767;28;20064;-84
2023/08/14 04:38:14;;;;;;;5.05;2.17;;;;;;;16.22;100.00;100843.91;5024767;28;20045;-86
2023/08/14 04:40:41;;;;;;;11.65;3.22;;;;;;;16.20;100.00;100840.41;5024641;28;20081;-86
2023/08/14 04:43:10;;;;;;;2.67;2.25;;;;;;;16.25;100.00;100842.94;5044133;28;20045;-86
2023/08/14 04:45:37;;;;;;;5.38;3.13;;;;;;;16.31;100.00;100848.03;5027930;28;20116;-88
2023/08/14 04:48:04;;;;;;;3.30;2.10;;;;;;;16.40;100.00;100842.50;5028323;28;20052;-88
2023/08/14 04:50:31;;;;;;;3.53;2.45;;;;;;;16.44;100.00;100841.47;5046457;28;20088;-86
2023/08/14 04:52:58;;;;;;;3.70;2.47;;;;;;;16.51;100.00;100836.88;5011568;28;20132;-87
2023/08/14 04:55:27;;;;;;;7.53;2.35;;;;;;;16.61;100.00;100840.94;5028215;28;20069;-86
2023/08/14 04:57:54;;;;;;;5.50;3.10;;;;;;;16.69;100.00;100841.56;5016355;28;20053;-88
2023/08/14 05:00:21;;;;;;;4.30;2.60;;;;;;;16.78;100.00;100836.91;5026258;28;20050;-86
2023/08/14 05:02:48;;;;;;;3.03;2.10;;;;;;;16.87;100.00;100837.47;5008643;28;20041;-88
2023/08/14 05:05:15;;;;;;;3.78;2.40;;;;;;;16.91;100.00;100826.81;5023699;28;20091;-86
2023/08/14 05:07:42;;;;;;;8.82;2.60;;;;;;;16.95;100.00;100831.97;5008851;28;20050;-85
2023/08/14 05:10:09;;;;;;;3.88;2.40;;;;;;;17.07;100.00;100838.63;5029699;28;20072;-86
2023/08/14 05:12:35;;;;;;;4.65;2.53;;;;;;;17.11;100.00;100840.25;5017393;28;20054;-87
2023/08/14 05:15:02;;;;;;;4.53;2.28;;;;;;;17.11;100.00;100844.69;5029170;28;20037;-90
2023/08/14 05:17:29;;;;;;;9.63;3.35;;;;;;;17.07;100.00;100835.16;5039232;28;20070;-90
2023/08/14 05:19:56;;;;;;;5.53;2.45;;;;;;;17.03;100.00;100840.50;5025455;28;20051;-86
2023/08/14 05:22:23;;;;;;;5.00;2.60;;;;;;;17.06;100.00;100850.13;5028494;28;20073;-85
2023/08/14 05:24:49;;;;;;;2.28;2.08;;;;;;;17.03;100.00;100843.16;5011434;28;20050;-86
2023/08/14 05:27:16;;;;;;;3.55;2.78;;;;;;;16.96;100.00;100838.13;5030835;28;20116;-85
2023/08/14 05:29:43;;;;;;;2.72;2.13;;;;;;;16.91;100.00;100834.75;5030357;28;20045;-86
2023/08/14 05:32:09;;;;;;;5.07;2.63;;;;;;;16.93;100.00;100840.88;5029477;28;20045;-88
2023/08/14 05:34:36;;;;;;;4.10;2.05;;;;;;;16.95;100.00;100842.56;5012284;28;20049;-85
2023/08/14 05:37:02;;;;;;;5.68;2.42;;;;;;;16.94;100.00;100837.31;5018147;28;20307;-88
2023/08/14 05:39:29;;;;;;;3.72;2.95;;;;;;;16.95;100.00;100836.41;5046409;28;20045;-85
2023/08/14 05:41:55;;;;;;;5.40;3.15;;;;;;;16.96;100.00;100841.66;5029310;28;20080;-85
2023/08/14 05:44:22;;;;;;;7.55;2.67;;;;;;;16.99;100.00;100838.88;5024932;28;20115;-86
2023/08/14 05:46:49;;;;;;;4.32;3.50;;;;;;;17.08;100.00;100845.66;5028729;28;20065;-87
2023/08/14 05:49:15;;;;;;;4.63;2.33;;;;;;;17.17;100.00;100847.16;5033796;28;20045;-85
2023/08/14 05:51:43;;;;;;;5.05;2.20;;;;;;;17.25;100.00;100842.44;5010101;28;20497;-88
2023/08/14 05:54:11;;;;;;;5.20;1.92;;;;;;;17.29;100.00;100840.56;5028203;28;20042;-88
2023/08/14 05:56:37;;;;;;;4.45;1.92;;;;;;;17.25;100.00;100838.94;5029091;28;20080;-85
2023/08/14 05:59:04;;;;;;;6.43;2.45;;;;;;;17.22;100.00;100842.53;5030266;28;20390;-84
2023/08/14 06:01:31;;;;;;;5.88;2.42;;;;;;;17.33;100.00;100839.56;5022817;28;20053;-84
2023/08/14 06:03:58;;;;;;;1.73;1.63;;;;;;;17.52;100.00;100842.41;5021465;28;20065;-85
2023/08/14 06:06:26;;;;;;;4.63;2.65;;;;;;;17.71;100.00;100850.56;5011550;28;20051;-90
2023/08/14 06:08:53;;;;;;;4.35;2.13;;;;;;;17.85;100.00;100845.66;5027163;28;21284;-84
2023/08/14 06:11:20;;;;;;;2.85;2.00;;;;;;;18.01;100.00;100842.47;5027970;28;20061;-86
2023/08/14 06:13:46;;;;;;;2.05;1.60;;;;;;;18.13;100.00;100849.09;5022962;28;20084;-84
2023/08/14 06:16:13;;;;;;;3.58;1.58;;;;;;;18.25;100.00;100853.06;5012735;28;20045;-84
2023/08/14 06:18:41;;;;;;;4.95;1.98;;;;;;;18.44;100.00;100862.03;5027806;28;20120;-85
2023/08/14 06:21:08;;;;;;;1.88;1.70;;;;;;;18.53;98.92;100866.13;5028380;28;20060;-87
2023/08/14 06:23:34;;;;;;;1.98;1.33;;;;;;;18.62;97.70;100859.63;5029060;28;20037;-85
2023/08/14 06:26:07;;;;;;;3.70;2.25;;;;;;;18.71;97.54;100867.19;5035203;28;20037;-87
2023/08/14 06:28:34;;;;;;;2.10;1.90;;;;;;;18.78;97.15;100868.66;5037366;28;20072;-84
2023/08/14 06:31:04;;;;;;;3.33;1.58;;;;;;;18.80;96.52;100869.47;5024584;28;20069;-90
2023/08/14 06:33:32;;;;;;;3.38;2.00;;;;;;;18.85;96.43;100863.97;5030224;28;20410;-84
2023/08/14 06:35:58;;;;;;;3.40;2.13;;;;;;;18.90;96.46;100861.19;5032223;28;20060;-84
2023/08/14 06:38:25;;;;;;;4.70;1.90;;;;;;;18.98;96.03;100852.00;5036144;28;20033;-83
2023/08/14 06:40:52;;;;;;;4.10;1.95;;;;;;;19.02;95.88;100855.41;5035888;28;20041;-85
2023/08/14 06:43:18;;;;;;;7.28;2.03;;;;;;;19.06;95.56;100858.75;5034587;28;20046;-84
2023/08/14 06:45:48;;;;;;;3.05;1.63;;;;;;;19.13;95.64;100861.09;5032861;28;20045;-83
2023/08/14 06:48:15;;;;;;;4.10;1.75;;;;;;;19.27;95.25;100860.53;5028710;28;20069;-84
2023/08/14 06:50:42;;;;;;;3.55;1.58;;;;;;;19.35;94.45;100852.25;5028466;28;20042;-84
2023/08/14 06:53:08;;;;;;;3.55;1.95;;;;;;;19.42;93.93;100852.84;5011077;28;20054;-87
2023/08/14 06:55:35;;;;;;;4.30;1.40;;;;;;;19.52;93.33;100838.25;5028164;28;20057;-91
2023/08/14 06:58:01;;;;;;;5.75;1.40;;;;;;;19.70;93.14;100848.97;5005030;28;20038;-84
2023/08/14 07:00:28;;;;;;;3.22;1.70;;;;;;;19.87;91.29;100849.16;5033865;28;20041;-86
2023/08/14 07:02:55;;;;;;;3.53;1.45;;;;;;;20.06;90.17;100843.84;5030384;28;20135;-85
2023/08/14 07:05:21;;;;;;;2.45;1.70;;;;;;;20.36;89.65;100846.03;5026655;28;20041;-83
2023/08/14 07:07:49;;;;;;;2.72;1.80;;;;;;;20.79;87.65;100845.81;5028068;28;20472;-83
2023/08/14 07:10:16;;;;;;;1.70;1.52;;;;;;;21.06;86.07;100848.06;5030057;28;20061;-83
2023/08/14 07:12:43;;;;;;;6.65;1.50;;;;;;;21.24;84.93;100847.13;5030027;28;20554;-83
2023/08/14 07:15:11;;;;;;;2.58;1.52;;;;;;;21.41;84.25;100848.06;5011696;28;20045;-85
2023/08/14 07:17:38;;;;;;;2.25;1.35;;;;;;;21.45;83.99;100849.63;5002210;28;20084;-86
2023/08/14 07:20:06;;;;;;;3.47;1.83;;;;;;;21.55;84.09;100850.03;5034729;28;20049;-84
2023/08/14 07:22:33;;;;;;;3.80;1.67;;;;;;;21.75;81.25;100862.31;5045742;28;20108;-88
2023/08/14 07:25:00;;;;;;;2.05;1.55;;;;;;;21.96;81.83;100858.50;5028076;28;20179;-85
2023/08/14 07:27:27;;;;;;;5.10;1.33;;;;;;;22.00;81.42;100853.88;5029321;28;20073;-83
2023/08/14 07:29:55;;;;;;;4.43;1.50;;;;;;;22.20;81.05;100850.16;5031187;28;20037;-85
2023/08/14 07:32:22;;;;;;;2.15;1.48;;;;;;;22.71;79.93;100854.47;5019473;28;20138;-83
2023/08/14 07:34:49;;;;;;;3.35;1.67;;;;;;;22.96;77.25;100849.47;5027097;28;20068;-85
2023/08/14 07:37:16;;;;;;;4.00;1.80;;;;;;;23.12;76.31;100837.88;5031076;28;20046;-85
2023/08/14 07:39:42;;;;;;;2.20;1.60;;;;;;;23.34;75.64;100832.16;5029212;28;20041;-88
2023/08/14 07:42:10;;;;;;;3.42;1.73;;;;;;;23.50;75.09;100824.06;5030973;28;20079;-85
2023/08/14 07:44:37;;;;;;;4.35;1.45;;;;;;;23.92;73.96;100827.78;5031968;28;20045;-86
2023/08/14 07:47:05;;;;;;;5.05;1.73;;;;;;;24.10;71.54;100823.06;5031000;28;20117;-85
2023/08/14 07:49:35;;;;;;;4.50;1.50;;;;;;;24.26;71.45;100828.31;5046227;28;20533;-87
2023/08/14 07:52:05;;;;;;;2.00;1.00;;;;;;;24.44;69.72;100831.63;5030221;28;20041;-86
2023/08/14 07:54:33;;;;;;;4.60;1.40;;;;;;;24.41;68.65;100828.28;5009938;28;20492;-82
2023/08/14 07:56:59;;;;;;;5.15;1.60;;;;;;;24.58;69.50;100830.72;5009893;28;20087;-84
2023/08/14 07:59:26;;;;;;;3.03;1.40;;;;;;;24.82;68.97;100823.88;5010812;28;20038;-85
2023/08/14 08:01:53;;;;;;;3.13;1.75;;;;;;;24.99;68.42;100822.75;5028110;28;20415;-85
2023/08/14 08:04:21;;;;;;;3.25;1.23;;;;;;;25.18;66.94;100817.03;5012315;28;20042;-89
2023/08/14 08:06:47;;;;;;;2.63;1.98;;;;;;;25.58;64.97;100825.03;5020564;28;20045;-83
2023/08/14 08:09:14;;;;;;;1.80;1.30;;;;;;;25.74;65.09;100835.53;5011103;28;20139;-83
2023/08/14 08:11:44;;;;;;;2.95;1.42;;;;;;;25.37;65.31;100844.31;5011426;28;20050;-85
2023/08/14 08:14:10;;;;;;;1.25;1.15;;;;;;;25.04;67.47;100834.03;5028327;28;20504;-85
2023/08/14 08:16:41;;;;;;;4.38;2.20;;;;;;;24.98;68.08;100827.28;5030963;28;20043;-84
2023/08/14 08:19:08;;;;;;;3.20;1.50;;;;;;;25.67;66.00;100828.88;5029023;28;20048;-84
2023/08/14 08:21:36;;;;;;;1.52;1.27;;;;;;;26.30;63.12;100832.50;5035258;28;20057;-86
2023/08/14 08:24:05;;;;;;;2.22;1.35;;;;;;;26.95;59.12;100832.25;5041820;28;20049;-91
2023/08/14 08:26:32;;;;;;;3.38;1.23;;;;;;;26.97;59.91;100836.53;5037916;28;20026;-89
2023/08/14 08:28:58;;;;;;;3.05;1.55;;;;;;;26.70;59.38;100840.31;5038122;28;20456;-84
2023/08/14 08:31:25;;;;;;;3.53;1.50;;;;;;;26.92;59.69;100844.06;5033871;28;20049;-86
2023/08/14 08:33:52;;;;;;;1.58;1.15;;;;;;;27.02;58.83;100845.09;5037487;23;20072;-82
2023/08/14 08:36:19;;;;;;;4.00;1.67;;;;;;;26.66;59.82;100840.63;5053982;28;20433;-83
2023/08/14 08:38:57;;;;;;;4.70;1.83;;;;;;;26.41;59.62;100839.75;5037660;28;20052;-84
2023/08/14 08:41:34;;;;;;;4.00;1.48;;;;;;;26.32;59.80;100838.63;5053284;28;20063;-84
2023/08/14 08:44:23;;;;;;;2.88;1.63;;;;;;;25.96;60.57;100837.56;5028107;28;20071;-83
2023/08/14 08:46:58;;;;;;;3.25;1.23;;;;;;;25.43;62.72;100832.31;5047426;28;20045;-83
2023/08/14 08:49:26;;;;;;;3.85;1.60;;;;;;;25.00;64.63;100835.19;5045191;28;20045;-83
2023/08/14 08:51:53;;;;;;;2.33;1.60;;;;;;;25.47;63.80;100824.91;5048018;28;20140;-82
2023/08/14 08:54:20;;;;;;;2.47;1.67;;;;;;;26.30;60.87;100823.59;5050207;28;20064;-84
2023/08/14 08:56:48;;;;;;;1.20;0.90;;;;;;;27.32;57.89;100821.41;5047265;28;20056;-83
2023/08/14 08:59:16;;;;;;;3.88;1.63;;;;;;;28.55;53.86;100821.53;5052693;28;20040;-86
2023/08/14 09:01:43;;;;;;;1.83;1.73;;;;;;;29.47;50.90;100822.91;5035673;28;20045;-85
2023/08/14 09:04:10;;;;;;;3.90;1.50;;;;;;;29.62;50.11;100821.56;5057391;28;20112;-85
2023/08/14 09:06:37;;;;;;;1.40;1.30;;;;;;;29.62;50.90;100818.00;5039554;28;20045;-83
2023/08/14 09:09:06;;;;;;;3.25;1.27;;;;;;;29.70;49.29;100827.16;5050371;28;20540;-82
2023/08/14 09:11:35;;;;;;;2.22;1.52;;;;;;;29.15;49.84;100821.09;5040273;28;20381;-83
2023/08/14 09:14:01;;;;;;;3.03;1.35;;;;;;;29.63;49.14;100820.56;5037970;28;20108;-82
2023/08/14 09:16:28;;;;;;;2.72;1.98;;;;;;;30.58;47.64;100818.53;5065320;28;20041;-84
2023/08/14 09:19:00;;;;;;;3.58;1.77;;;;;;;31.58;44.31;100816.47;5044755;28;20099;-86
2023/08/14 09:21:30;;;;;;;5.60;1.25;;;;;;;31.83;43.02;100806.84;5030803;28;20378;-86
2023/08/14 09:23:59;;;;;;;1.17;1.13;;;;;;;31.17;43.75;100814.00;5051464;28;20481;-84
2023/08/14 09:26:26;;;;;;;2.75;2.05;;;;;;;31.16;44.26;100809.59;5047773;28;20092;-83
2023/08/14 09:28:53;;;;;;;4.43;1.50;;;;;;;31.38;43.47;100807.56;5042411;28;20433;-84
2023/08/14 09:31:21;;;;;;;3.75;1.48;;;;;;;31.17;44.01;100822.13;5035242;28;20464;-84
2023/08/14 09:33:48;;;;;;;3.60;1.30;;;;;;;31.57;41.98;100814.75;5048890;28;20037;-83
2023/08/14 09:36:20;;;;;;;3.63;1.20;;;;;;;31.62;43.05;100817.06;5029324;28;20053;-85
2023/08/14 09:38:58;;;;;;;2.30;1.23;;;;;;;31.93;41.68;100814.94;5028628;28;20377;-82
2023/08/14 09:41:28;;;;;;;2.28;1.20;;;;;;;31.84;42.30;100808.56;5030654;28;20046;-82
2023/08/14 09:43:54;;;;;;;2.15;1.30;;;;;;;32.30;41.30;100810.50;5013310;28;20057;-83
2023/08/14 09:46:21;;;;;;;4.05;1.42;;;;;;;32.48;40.47;100805.94;5025252;28;20124;-84
2023/08/14 09:48:49;;;;;;;2.03;1.48;;;;;;;32.98;38.56;100810.03;5007008;28;20046;-82
2023/08/14 09:51:18;;;;;;;1.65;1.42;;;;;;;33.21;38.29;100806.78;5029130;28;20041;-83
2023/08/14 09:53:50;;;;;;;3.63;0.98;;;;;;;32.54;38.60;100818.06;5025452;28;20081;-84
2023/08/14 09:56:21;;;;;;;3.33;1.33;;;;;;;30.43;42.67;100820.75;5010828;28;20046;-84
2023/08/14 09:58:49;;;;;;;2.77;1.37;;;;;;;29.76;43.78;100820.34;5019977;28;20061;-84
2023/08/14 10:01:24;;;;;;;3.95;1.20;;;;;;;29.05;46.28;100811.09;5031266;28;20045;-84
2023/08/14 10:03:58;;;;;;;2.72;1.40;;;;;;;29.73;44.59;100812.53;5027205;28;20500;-84
2023/08/14 10:06:26;;;;;;;3.22;1.70;;;;;;;30.90;42.76;100809.31;5030532;28;20454;-83
2023/08/14 10:09:02;;;;;;;3.20;1.90;;;;;;;31.65;41.02;100800.53;5048041;28;20073;-83
2023/08/14 10:11:32;;;;;;;2.42;1.75;;;;;;;31.48;41.21;100805.66;5031059;28;20231;-83
2023/08/14 10:14:08;;;;;;;1.52;1.20;;;;;;;30.71;42.16;100804.75;5012723;28;20397;-83
2023/08/14 10:16:39;;;;;;;2.40;1.40;;;;;;;30.05;43.81;100802.59;5012539;28;20072;-88
2023/08/14 10:19:13;;;;;;;2.72;1.75;;;;;;;29.31;46.01;100805.34;5039188;28;20555;-84
2023/08/14 10:21:42;;;;;;;1.75;1.25;;;;;;;28.80;47.15;100797.97;5033428;28;20060;-83
2023/08/14 10:24:13;;;;;;;2.97;1.52;;;;;;;28.31;48.55;100792.97;5048314;28;20087;-81
2023/08/14 10:26:42;;;;;;;2.30;1.60;;;;;;;28.35;48.89;100798.97;5050246;28;20073;-81
2023/08/14 10:29:10;;;;;;;2.92;1.67;;;;;;;28.65;48.64;100794.72;5028216;28;20042;-83
2023/08/14 10:31:46;;;;;;;2.53;1.58;;;;;;;29.20;46.83;100802.69;5011649;28;20488;-83
2023/08/14 10:34:17;;;;;;;4.07;1.58;;;;;;;29.61;45.15;100803.69;5030528;28;20045;-82
2023/08/14 10:36:43;;;;;;;1.83;1.55;;;;;;;29.69;45.18;100795.75;5030819;28;20056;-83
2023/08/14 10:39:12;;;;;;;1.70;1.58;;;;;;;29.44;44.21;100791.66;5029496;28;20045;-82
2023/08/14 10:41:39;;;;;;;3.35;1.58;;;;;;;29.07;45.44;100793.94;5029166;28;20052;-85
2023/08/14 10:44:12;;;;;;;2.85;1.58;;;;;;;29.96;43.72;100788.06;5032620;28;20041;-82
2023/08/14 10:46:46;;;;;;;1.67;1.10;;;;;;;31.55;39.90;100789.72;5029195;28;20053;-85
2023/08/14 10:49:14;;;;;;;2.28;1.25;;;;;;;33.18;35.65;100776.41;4997955;28;20045;-83
2023/08/14 10:51:43;;;;;;;1.42;0.98;;;;;;;33.80;35.42;100787.19;5021807;28;20060;-83
2023/08/14 10:58:50;;;;;;;1.33;1.23;;;;;;;32.67;37.17;100798.66;4926585;29;20321;-88
2023/08/14 11:01:18;;;;;;;2.58;1.40;;;;;;;31.93;37.60;100798.69;4984781;28;20049;-84
2023/08/14 11:04:05;;;;;;;4.72;1.88;;;;;;;31.10;39.69;100802.06;5029936;28;20112;-84
2023/08/14 11:07:11;;;;;;;1.75;1.25;;;;;;;30.55;40.56;100805.31;5029044;28;20448;-83
2023/08/14 11:09:40;;;;;;;2.60;1.55;;;;;;;29.98;42.30;100795.03;5018867;28;20045;-83
2023/08/14 11:12:16;;;;;;;2.83;1.55;;;;;;;30.05;42.12;100795.38;5046116;28;20042;-85
2023/08/14 11:14:45;;;;;;;1.73;1.38;;;;;;;29.91;42.61;100802.00;5024236;28;20117;-83
2023/08/14 11:17:12;;;;;;;2.20;1.55;;;;;;;30.78;41.20;100796.91;5034430;28;20045;-83
2023/08/14 11:19:39;;;;;;;6.05;1.17;;;;;;;32.49;37.89;100790.56;5036067;28;20087;-84
2023/08/14 11:22:13;;;;;;;3.22;1.90;;;;;;;33.75;35.12;100786.78;5034556;28;20148;-84
2023/08/14 11:24:41;;;;;;;2.22;1.88;;;;;;;34.30;33.64;100778.19;5036510;28;20482;-82
2023/08/14 11:27:08;;;;;;;1.60;1.50;;;;;;;35.31;32.97;100786.22;5041334;28;20037;-88
2023/08/14 11:29:36;;;;;;;5.97;1.30;;;;;;;36.92;30.91;100784.09;5034902;28;20045;-86
2023/08/14 11:32:03;;;;;;;1.35;1.25;;;;;;;38.46;28.60;100779.91;5019290;28;20045;-83